sensor_id;sensor_type;location;lat;lon;timestamp;P1;durP1;ratioP1;P2;durP2;ratioP2
84031;SDS011;74113;46.556;24.570;2024-01-10T00:00:45;11.60;;;5.60;;
84031;SDS011;74113;46.556;24.570;2024-01-10T00:03:33;13.70;;;4.90;;
84031;SDS011;74113;46.556;24.570;2024-01-10T00:06:02;12.40;;;4.90;;
84031;SDS011;74113;46.556;24.570;2024-01-10T00:08:32;11.90;;;5.50;;
84031;SDS011;74113;46.556;24.570;2024-01-10T00:11:00;12.60;;;5.50;;
84031;SDS011;74113;46.556;24.570;2024-01-10T00:13:30;13.20;;;6.90;;
84031;SDS011;74113;46.556;24.570;2024-01-10T00:16:00;13.20;;;5.80;;
84031;SDS011;74113;46.556;24.570;2024-01-10T00:18:29;11.40;;;4.90;;
84031;SDS011;74113;46.556;24.570;2024-01-10T00:23:26;13.10;;;5.20;;
84031;SDS011;74113;46.556;24.570;2024-01-10T00:25:54;14.80;;;6.40;;
84031;SDS011;74113;46.556;24.570;2024-01-10T00:28:23;14.90;;;7.20;;
84031;SDS011;74113;46.556;24.570;2024-01-10T00:30:52;15.90;;;6.40;;
84031;SDS011;74113;46.556;24.570;2024-01-10T00:33:21;15.20;;;8.70;;
84031;SDS011;74113;46.556;24.570;2024-01-10T00:35:50;15.00;;;7.90;;
84031;SDS011;74113;46.556;24.570;2024-01-10T00:38:18;13.50;;;7.80;;
84031;SDS011;74113;46.556;24.570;2024-01-10T00:40:47;15.10;;;6.50;;
84031;SDS011;74113;46.556;24.570;2024-01-10T00:43:15;15.10;;;6.00;;
84031;SDS011;74113;46.556;24.570;2024-01-10T00:45:43;10.40;;;4.80;;
84031;SDS011;74113;46.556;24.570;2024-01-10T00:48:12;13.00;;;5.20;;
84031;SDS011;74113;46.556;24.570;2024-01-10T00:50:40;12.70;;;5.10;;
84031;SDS011;74113;46.556;24.570;2024-01-10T00:53:09;10.80;;;5.00;;
84031;SDS011;74113;46.556;24.570;2024-01-10T00:55:38;16.50;;;5.60;;
84031;SDS011;74113;46.556;24.570;2024-01-10T00:58:07;13.40;;;7.30;;
84031;SDS011;74113;46.556;24.570;2024-01-10T01:00:35;15.30;;;7.40;;
84031;SDS011;74113;46.556;24.570;2024-01-10T01:03:03;14.60;;;5.40;;
84031;SDS011;74113;46.556;24.570;2024-01-10T01:05:32;10.40;;;4.40;;
84031;SDS011;74113;46.556;24.570;2024-01-10T01:08:01;15.30;;;6.40;;
84031;SDS011;74113;46.556;24.570;2024-01-10T01:10:30;12.90;;;4.80;;
84031;SDS011;74113;46.556;24.570;2024-01-10T01:13:01;14.30;;;6.10;;
84031;SDS011;74113;46.556;24.570;2024-01-10T01:15:29;15.60;;;4.90;;
84031;SDS011;74113;46.556;24.570;2024-01-10T01:17:58;8.40;;;3.80;;
84031;SDS011;74113;46.556;24.570;2024-01-10T01:22:58;11.30;;;4.70;;
84031;SDS011;74113;46.556;24.570;2024-01-10T01:25:26;9.60;;;3.50;;
84031;SDS011;74113;46.556;24.570;2024-01-10T01:27:55;11.30;;;4.40;;
84031;SDS011;74113;46.556;24.570;2024-01-10T01:30:24;7.40;;;3.80;;
84031;SDS011;74113;46.556;24.570;2024-01-10T01:32:53;15.10;;;5.80;;
84031;SDS011;74113;46.556;24.570;2024-01-10T01:37:51;19.30;;;7.10;;
84031;SDS011;74113;46.556;24.570;2024-01-10T01:40:20;14.30;;;5.50;;
84031;SDS011;74113;46.556;24.570;2024-01-10T01:42:48;28.90;;;12.10;;
84031;SDS011;74113;46.556;24.570;2024-01-10T01:45:16;18.70;;;8.50;;
84031;SDS011;74113;46.556;24.570;2024-01-10T01:47:45;28.80;;;12.00;;
84031;SDS011;74113;46.556;24.570;2024-01-10T01:50:14;29.80;;;12.10;;
84031;SDS011;74113;46.556;24.570;2024-01-10T01:52:43;29.70;;;10.50;;
84031;SDS011;74113;46.556;24.570;2024-01-10T01:55:12;23.30;;;9.40;;
84031;SDS011;74113;46.556;24.570;2024-01-10T01:57:41;27.20;;;10.20;;
84031;SDS011;74113;46.556;24.570;2024-01-10T02:02:39;29.50;;;11.50;;
84031;SDS011;74113;46.556;24.570;2024-01-10T02:05:08;29.30;;;12.60;;
84031;SDS011;74113;46.556;24.570;2024-01-10T02:07:37;21.10;;;10.10;;
84031;SDS011;74113;46.556;24.570;2024-01-10T02:10:06;25.50;;;12.20;;
84031;SDS011;74113;46.556;24.570;2024-01-10T02:12:35;20.60;;;8.40;;
84031;SDS011;74113;46.556;24.570;2024-01-10T02:15:04;26.80;;;10.40;;
84031;SDS011;74113;46.556;24.570;2024-01-10T02:17:33;23.60;;;10.40;;
84031;SDS011;74113;46.556;24.570;2024-01-10T02:20:08;23.30;;;9.20;;
84031;SDS011;74113;46.556;24.570;2024-01-10T02:22:41;20.60;;;8.30;;
84031;SDS011;74113;46.556;24.570;2024-01-10T02:25:09;19.20;;;8.90;;
84031;SDS011;74113;46.556;24.570;2024-01-10T02:27:39;22.70;;;9.90;;
84031;SDS011;74113;46.556;24.570;2024-01-10T02:30:09;15.30;;;7.10;;
84031;SDS011;74113;46.556;24.570;2024-01-10T02:32:39;17.60;;;7.70;;
84031;SDS011;74113;46.556;24.570;2024-01-10T02:35:08;21.10;;;10.60;;
84031;SDS011;74113;46.556;24.570;2024-01-10T02:40:05;16.10;;;6.10;;
84031;SDS011;74113;46.556;24.570;2024-01-10T02:42:35;16.50;;;8.50;;
84031;SDS011;74113;46.556;24.570;2024-01-10T02:45:03;17.60;;;7.80;;
84031;SDS011;74113;46.556;24.570;2024-01-10T02:47:32;17.60;;;8.30;;
84031;SDS011;74113;46.556;24.570;2024-01-10T02:50:02;17.00;;;7.80;;
84031;SDS011;74113;46.556;24.570;2024-01-10T02:52:31;14.70;;;6.60;;
84031;SDS011;74113;46.556;24.570;2024-01-10T02:55:00;22.40;;;9.70;;
84031;SDS011;74113;46.556;24.570;2024-01-10T02:57:28;16.40;;;7.80;;
84031;SDS011;74113;46.556;24.570;2024-01-10T02:59:57;21.00;;;9.10;;
84031;SDS011;74113;46.556;24.570;2024-01-10T03:02:25;23.90;;;11.90;;
84031;SDS011;74113;46.556;24.570;2024-01-10T03:04:54;29.10;;;11.40;;
84031;SDS011;74113;46.556;24.570;2024-01-10T03:07:23;25.20;;;10.60;;
84031;SDS011;74113;46.556;24.570;2024-01-10T03:09:55;25.50;;;12.40;;
84031;SDS011;74113;46.556;24.570;2024-01-10T03:12:23;18.50;;;8.20;;
84031;SDS011;74113;46.556;24.570;2024-01-10T03:14:52;21.50;;;9.00;;
84031;SDS011;74113;46.556;24.570;2024-01-10T03:17:20;24.70;;;9.50;;
84031;SDS011;74113;46.556;24.570;2024-01-10T03:19:50;19.70;;;8.70;;
84031;SDS011;74113;46.556;24.570;2024-01-10T03:22:19;22.50;;;8.70;;
84031;SDS011;74113;46.556;24.570;2024-01-10T03:24:47;19.60;;;8.40;;
84031;SDS011;74113;46.556;24.570;2024-01-10T03:27:16;23.10;;;11.80;;
84031;SDS011;74113;46.556;24.570;2024-01-10T03:29:44;21.40;;;12.00;;
84031;SDS011;74113;46.556;24.570;2024-01-10T03:32:13;22.10;;;10.00;;
84031;SDS011;74113;46.556;24.570;2024-01-10T03:34:42;22.90;;;11.20;;
84031;SDS011;74113;46.556;24.570;2024-01-10T03:39:39;19.20;;;6.40;;
84031;SDS011;74113;46.556;24.570;2024-01-10T03:42:07;14.30;;;9.60;;
84031;SDS011;74113;46.556;24.570;2024-01-10T03:44:36;19.60;;;6.70;;
84031;SDS011;74113;46.556;24.570;2024-01-10T03:47:05;14.10;;;5.80;;
84031;SDS011;74113;46.556;24.570;2024-01-10T03:49:34;13.30;;;6.30;;
84031;SDS011;74113;46.556;24.570;2024-01-10T03:52:02;15.30;;;6.50;;
84031;SDS011;74113;46.556;24.570;2024-01-10T03:54:31;17.30;;;9.40;;
84031;SDS011;74113;46.556;24.570;2024-01-10T03:57:00;14.00;;;7.20;;
84031;SDS011;74113;46.556;24.570;2024-01-10T03:59:29;17.00;;;8.50;;
84031;SDS011;74113;46.556;24.570;2024-01-10T04:01:57;16.60;;;9.20;;
84031;SDS011;74113;46.556;24.570;2024-01-10T04:04:28;17.90;;;7.90;;
84031;SDS011;74113;46.556;24.570;2024-01-10T04:06:57;14.50;;;6.40;;
84031;SDS011;74113;46.556;24.570;2024-01-10T04:11:54;20.80;;;7.50;;
84031;SDS011;74113;46.556;24.570;2024-01-10T04:14:23;22.80;;;9.80;;
84031;SDS011;74113;46.556;24.570;2024-01-10T04:16:53;22.40;;;9.40;;
84031;SDS011;74113;46.556;24.570;2024-01-10T04:19:22;19.70;;;9.80;;
84031;SDS011;74113;46.556;24.570;2024-01-10T04:21:50;33.40;;;13.30;;
84031;SDS011;74113;46.556;24.570;2024-01-10T04:24:19;30.90;;;12.90;;
84031;SDS011;74113;46.556;24.570;2024-01-10T04:26:47;35.60;;;13.00;;
84031;SDS011;74113;46.556;24.570;2024-01-10T04:29:16;31.50;;;12.70;;
84031;SDS011;74113;46.556;24.570;2024-01-10T04:31:44;31.80;;;15.40;;
84031;SDS011;74113;46.556;24.570;2024-01-10T04:34:13;30.10;;;13.40;;
84031;SDS011;74113;46.556;24.570;2024-01-10T04:36:42;29.50;;;10.50;;
84031;SDS011;74113;46.556;24.570;2024-01-10T04:39:10;20.00;;;8.70;;
84031;SDS011;74113;46.556;24.570;2024-01-10T04:41:39;23.50;;;9.30;;
84031;SDS011;74113;46.556;24.570;2024-01-10T04:44:08;18.40;;;8.70;;
84031;SDS011;74113;46.556;24.570;2024-01-10T04:46:36;21.40;;;10.90;;
84031;SDS011;74113;46.556;24.570;2024-01-10T04:49:05;22.20;;;10.60;;
84031;SDS011;74113;46.556;24.570;2024-01-10T04:51:33;23.80;;;9.20;;
84031;SDS011;74113;46.556;24.570;2024-01-10T04:54:02;18.50;;;7.50;;
84031;SDS011;74113;46.556;24.570;2024-01-10T04:56:31;21.40;;;8.40;;
84031;SDS011;74113;46.556;24.570;2024-01-10T04:58:59;18.30;;;8.10;;
84031;SDS011;74113;46.556;24.570;2024-01-10T05:01:28;13.10;;;5.80;;
84031;SDS011;74113;46.556;24.570;2024-01-10T05:03:56;19.10;;;7.10;;
84031;SDS011;74113;46.556;24.570;2024-01-10T05:08:54;13.80;;;5.50;;
84031;SDS011;74113;46.556;24.570;2024-01-10T05:11:26;12.00;;;4.60;;
84031;SDS011;74113;46.556;24.570;2024-01-10T05:13:55;8.90;;;3.80;;
84031;SDS011;74113;46.556;24.570;2024-01-10T05:16:23;10.00;;;4.10;;
84031;SDS011;74113;46.556;24.570;2024-01-10T05:18:52;9.60;;;4.40;;
84031;SDS011;74113;46.556;24.570;2024-01-10T05:21:21;12.00;;;5.90;;
84031;SDS011;74113;46.556;24.570;2024-01-10T05:23:50;12.80;;;9.10;;
84031;SDS011;74113;46.556;24.570;2024-01-10T05:28:48;10.60;;;5.50;;
84031;SDS011;74113;46.556;24.570;2024-01-10T05:31:17;12.80;;;8.10;;
84031;SDS011;74113;46.556;24.570;2024-01-10T05:33:46;8.30;;;3.70;;
84031;SDS011;74113;46.556;24.570;2024-01-10T05:38:44;40.10;;;11.30;;
84031;SDS011;74113;46.556;24.570;2024-01-10T05:43:43;32.10;;;10.50;;
84031;SDS011;74113;46.556;24.570;2024-01-10T05:46:18;23.20;;;8.00;;
84031;SDS011;74113;46.556;24.570;2024-01-10T05:48:51;38.40;;;13.10;;
84031;SDS011;74113;46.556;24.570;2024-01-10T05:51:20;21.40;;;7.60;;
84031;SDS011;74113;46.556;24.570;2024-01-10T05:53:51;18.00;;;8.70;;
84031;SDS011;74113;46.556;24.570;2024-01-10T05:56:29;33.00;;;12.90;;
84031;SDS011;74113;46.556;24.570;2024-01-10T05:59:38;19.10;;;7.90;;
84031;SDS011;74113;46.556;24.570;2024-01-10T06:02:12;22.50;;;8.00;;
84031;SDS011;74113;46.556;24.570;2024-01-10T06:04:44;30.30;;;14.50;;
84031;SDS011;74113;46.556;24.570;2024-01-10T06:07:15;22.50;;;9.40;;
84031;SDS011;74113;46.556;24.570;2024-01-10T06:09:43;28.40;;;10.40;;
84031;SDS011;74113;46.556;24.570;2024-01-10T06:12:13;25.00;;;10.80;;
84031;SDS011;74113;46.556;24.570;2024-01-10T06:14:41;27.40;;;10.50;;
84031;SDS011;74113;46.556;24.570;2024-01-10T06:17:12;18.10;;;9.00;;
84031;SDS011;74113;46.556;24.570;2024-01-10T06:19:41;22.80;;;10.70;;
84031;SDS011;74113;46.556;24.570;2024-01-10T06:24:39;16.00;;;7.20;;
84031;SDS011;74113;46.556;24.570;2024-01-10T06:27:11;20.20;;;8.70;;
84031;SDS011;74113;46.556;24.570;2024-01-10T06:29:40;14.70;;;7.20;;
84031;SDS011;74113;46.556;24.570;2024-01-10T06:32:10;19.60;;;10.20;;
84031;SDS011;74113;46.556;24.570;2024-01-10T06:34:40;25.70;;;9.60;;
84031;SDS011;74113;46.556;24.570;2024-01-10T06:37:10;22.70;;;9.10;;
84031;SDS011;74113;46.556;24.570;2024-01-10T06:39:39;17.10;;;7.70;;
84031;SDS011;74113;46.556;24.570;2024-01-10T06:42:09;25.30;;;10.10;;
84031;SDS011;74113;46.556;24.570;2024-01-10T06:44:40;20.50;;;9.70;;
84031;SDS011;74113;46.556;24.570;2024-01-10T06:47:09;22.20;;;9.30;;
84031;SDS011;74113;46.556;24.570;2024-01-10T06:49:38;19.00;;;7.40;;
84031;SDS011;74113;46.556;24.570;2024-01-10T06:52:07;15.70;;;6.70;;
84031;SDS011;74113;46.556;24.570;2024-01-10T06:54:37;11.60;;;5.30;;
84031;SDS011;74113;46.556;24.570;2024-01-10T06:57:09;11.50;;;4.60;;
84031;SDS011;74113;46.556;24.570;2024-01-10T06:59:42;11.70;;;4.50;;
84031;SDS011;74113;46.556;24.570;2024-01-10T07:02:20;12.30;;;4.90;;
84031;SDS011;74113;46.556;24.570;2024-01-10T07:12:03;13.50;;;4.30;;
84031;SDS011;74113;46.556;24.570;2024-01-10T07:14:49;9.70;;;4.10;;
84031;SDS011;74113;46.556;24.570;2024-01-10T07:17:27;20.90;;;8.30;;
84031;SDS011;74113;46.556;24.570;2024-01-10T07:19:57;23.90;;;8.00;;
84031;SDS011;74113;46.556;24.570;2024-01-10T07:22:29;20.70;;;7.20;;
84031;SDS011;74113;46.556;24.570;2024-01-10T07:24:58;18.60;;;7.30;;
84031;SDS011;74113;46.556;24.570;2024-01-10T07:27:27;16.50;;;6.00;;
84031;SDS011;74113;46.556;24.570;2024-01-10T07:29:55;11.10;;;5.30;;
84031;SDS011;74113;46.556;24.570;2024-01-10T07:32:26;11.90;;;6.30;;
84031;SDS011;74113;46.556;24.570;2024-01-10T07:34:58;11.10;;;5.10;;
84031;SDS011;74113;46.556;24.570;2024-01-10T07:40:00;14.80;;;5.90;;
84031;SDS011;74113;46.556;24.570;2024-01-10T07:42:29;12.10;;;4.90;;
84031;SDS011;74113;46.556;24.570;2024-01-10T07:44:59;8.90;;;4.60;;
84031;SDS011;74113;46.556;24.570;2024-01-10T07:47:28;19.60;;;6.40;;
84031;SDS011;74113;46.556;24.570;2024-01-10T07:53:45;16.70;;;5.50;;
84031;SDS011;74113;46.556;24.570;2024-01-10T07:56:13;13.00;;;5.00;;
84031;SDS011;74113;46.556;24.570;2024-01-10T07:58:43;17.20;;;7.20;;
84031;SDS011;74113;46.556;24.570;2024-01-10T08:01:23;12.80;;;5.10;;
84031;SDS011;74113;46.556;24.570;2024-01-10T08:03:52;15.10;;;6.20;;
84031;SDS011;74113;46.556;24.570;2024-01-10T08:06:22;19.50;;;8.60;;
84031;SDS011;74113;46.556;24.570;2024-01-10T08:09:00;58.30;;;24.10;;
84031;SDS011;74113;46.556;24.570;2024-01-10T08:11:34;22.80;;;9.20;;
84031;SDS011;74113;46.556;24.570;2024-01-10T08:14:03;22.20;;;9.70;;
84031;SDS011;74113;46.556;24.570;2024-01-10T08:16:34;20.20;;;8.40;;
84031;SDS011;74113;46.556;24.570;2024-01-10T08:19:04;17.80;;;7.10;;
84031;SDS011;74113;46.556;24.570;2024-01-10T08:21:46;21.80;;;10.80;;
84031;SDS011;74113;46.556;24.570;2024-01-10T08:24:18;22.90;;;8.90;;
84031;SDS011;74113;46.556;24.570;2024-01-10T08:26:47;16.30;;;7.00;;
84031;SDS011;74113;46.556;24.570;2024-01-10T08:29:22;24.50;;;10.10;;
84031;SDS011;74113;46.556;24.570;2024-01-10T08:31:53;21.30;;;8.60;;
84031;SDS011;74113;46.556;24.570;2024-01-10T08:34:23;16.50;;;7.10;;
84031;SDS011;74113;46.556;24.570;2024-01-10T08:36:52;14.00;;;7.20;;
84031;SDS011;74113;46.556;24.570;2024-01-10T08:39:21;15.40;;;6.80;;
84031;SDS011;74113;46.556;24.570;2024-01-10T08:41:57;12.30;;;7.40;;
84031;SDS011;74113;46.556;24.570;2024-01-10T08:44:28;19.20;;;8.60;;
84031;SDS011;74113;46.556;24.570;2024-01-10T08:49:38;13.40;;;7.50;;
84031;SDS011;74113;46.556;24.570;2024-01-10T08:52:45;12.20;;;6.90;;
84031;SDS011;74113;46.556;24.570;2024-01-10T08:55:23;11.10;;;5.30;;
84031;SDS011;74113;46.556;24.570;2024-01-10T08:58:19;17.10;;;9.70;;
84031;SDS011;74113;46.556;24.570;2024-01-10T09:01:00;15.80;;;7.70;;
84031;SDS011;74113;46.556;24.570;2024-01-10T09:03:29;10.40;;;5.10;;
84031;SDS011;74113;46.556;24.570;2024-01-10T09:05:58;10.40;;;5.10;;
84031;SDS011;74113;46.556;24.570;2024-01-10T09:08:38;9.90;;;4.20;;
84031;SDS011;74113;46.556;24.570;2024-01-10T09:11:07;12.70;;;5.60;;
84031;SDS011;74113;46.556;24.570;2024-01-10T09:13:36;8.50;;;5.70;;
84031;SDS011;74113;46.556;24.570;2024-01-10T09:16:08;8.40;;;4.00;;
84031;SDS011;74113;46.556;24.570;2024-01-10T09:18:38;12.80;;;5.20;;
84031;SDS011;74113;46.556;24.570;2024-01-10T09:21:08;10.30;;;5.30;;
84031;SDS011;74113;46.556;24.570;2024-01-10T09:23:36;10.00;;;4.00;;
84031;SDS011;74113;46.556;24.570;2024-01-10T09:28:34;9.20;;;5.30;;
84031;SDS011;74113;46.556;24.570;2024-01-10T09:33:31;10.80;;;3.80;;
84031;SDS011;74113;46.556;24.570;2024-01-10T09:36:00;14.00;;;5.00;;
84031;SDS011;74113;46.556;24.570;2024-01-10T09:38:29;12.40;;;5.60;;
84031;SDS011;74113;46.556;24.570;2024-01-10T09:40:59;13.50;;;4.70;;
84031;SDS011;74113;46.556;24.570;2024-01-10T09:43:32;10.00;;;4.50;;
84031;SDS011;74113;46.556;24.570;2024-01-10T09:46:06;13.30;;;6.50;;
84031;SDS011;74113;46.556;24.570;2024-01-10T09:49:24;10.40;;;6.20;;
84031;SDS011;74113;46.556;24.570;2024-01-10T09:51:57;10.90;;;4.50;;
84031;SDS011;74113;46.556;24.570;2024-01-10T09:56:58;12.80;;;5.70;;
84031;SDS011;74113;46.556;24.570;2024-01-10T09:59:28;11.10;;;5.30;;
84031;SDS011;74113;46.556;24.570;2024-01-10T10:01:57;11.10;;;4.80;;
84031;SDS011;74113;46.556;24.570;2024-01-10T10:04:29;6.40;;;3.00;;
84031;SDS011;74113;46.556;24.570;2024-01-10T10:07:00;7.20;;;3.50;;
84031;SDS011;74113;46.556;24.570;2024-01-10T10:09:35;11.20;;;4.80;;
84031;SDS011;74113;46.556;24.570;2024-01-10T10:12:04;12.50;;;4.60;;
84031;SDS011;74113;46.556;24.570;2024-01-10T10:14:35;10.20;;;3.80;;
84031;SDS011;74113;46.556;24.570;2024-01-10T10:17:16;8.20;;;2.20;;
84031;SDS011;74113;46.556;24.570;2024-01-10T10:19:46;4.40;;;2.10;;
84031;SDS011;74113;46.556;24.570;2024-01-10T10:22:15;5.40;;;2.50;;
84031;SDS011;74113;46.556;24.570;2024-01-10T10:24:47;7.10;;;3.20;;
84031;SDS011;74113;46.556;24.570;2024-01-10T10:27:17;6.10;;;2.40;;
84031;SDS011;74113;46.556;24.570;2024-01-10T10:29:47;8.20;;;3.30;;
84031;SDS011;74113;46.556;24.570;2024-01-10T10:32:17;9.30;;;3.10;;
84031;SDS011;74113;46.556;24.570;2024-01-10T10:34:46;5.50;;;2.10;;
84031;SDS011;74113;46.556;24.570;2024-01-10T10:37:15;7.80;;;3.00;;
84031;SDS011;74113;46.556;24.570;2024-01-10T10:39:44;5.60;;;2.20;;
84031;SDS011;74113;46.556;24.570;2024-01-10T10:42:14;7.40;;;3.50;;
84031;SDS011;74113;46.556;24.570;2024-01-10T10:44:44;8.30;;;3.90;;
84031;SDS011;74113;46.556;24.570;2024-01-10T10:47:14;8.10;;;3.60;;
84031;SDS011;74113;46.556;24.570;2024-01-10T10:49:53;6.30;;;3.10;;
84031;SDS011;74113;46.556;24.570;2024-01-10T10:52:25;8.80;;;3.00;;
84031;SDS011;74113;46.556;24.570;2024-01-10T10:54:55;8.40;;;4.60;;
84031;SDS011;74113;46.556;24.570;2024-01-10T10:57:35;5.80;;;2.30;;
84031;SDS011;74113;46.556;24.570;2024-01-10T11:00:07;8.70;;;4.30;;
84031;SDS011;74113;46.556;24.570;2024-01-10T11:02:40;7.40;;;3.10;;
84031;SDS011;74113;46.556;24.570;2024-01-10T11:05:33;6.70;;;3.10;;
84031;SDS011;74113;46.556;24.570;2024-01-10T11:08:10;8.00;;;3.60;;
84031;SDS011;74113;46.556;24.570;2024-01-10T11:11:26;7.50;;;3.50;;
84031;SDS011;74113;46.556;24.570;2024-01-10T11:25:05;6.60;;;2.50;;
84031;SDS011;74113;46.556;24.570;2024-01-10T11:27:36;4.70;;;2.50;;
84031;SDS011;74113;46.556;24.570;2024-01-10T11:30:05;7.80;;;3.80;;
84031;SDS011;74113;46.556;24.570;2024-01-10T11:32:35;7.80;;;3.90;;
84031;SDS011;74113;46.556;24.570;2024-01-10T11:35:22;7.70;;;3.00;;
84031;SDS011;74113;46.556;24.570;2024-01-10T11:37:52;8.30;;;3.80;;
84031;SDS011;74113;46.556;24.570;2024-01-10T11:43:18;4.60;;;1.40;;
84031;SDS011;74113;46.556;24.570;2024-01-10T11:45:56;5.60;;;2.00;;
84031;SDS011;74113;46.556;24.570;2024-01-10T11:48:27;4.10;;;1.40;;
84031;SDS011;74113;46.556;24.570;2024-01-10T11:50:58;3.40;;;2.10;;
84031;SDS011;74113;46.556;24.570;2024-01-10T11:53:43;3.10;;;1.20;;
84031;SDS011;74113;46.556;24.570;2024-01-10T11:56:19;7.50;;;1.50;;
84031;SDS011;74113;46.556;24.570;2024-01-10T11:59:03;3.50;;;1.50;;
84031;SDS011;74113;46.556;24.570;2024-01-10T12:01:40;5.60;;;2.90;;
84031;SDS011;74113;46.556;24.570;2024-01-10T12:04:10;5.10;;;3.00;;
84031;SDS011;74113;46.556;24.570;2024-01-10T12:06:54;3.90;;;1.50;;
84031;SDS011;74113;46.556;24.570;2024-01-10T12:09:24;5.60;;;1.60;;
84031;SDS011;74113;46.556;24.570;2024-01-10T12:11:59;6.00;;;3.10;;
84031;SDS011;74113;46.556;24.570;2024-01-10T12:14:29;4.30;;;1.50;;
84031;SDS011;74113;46.556;24.570;2024-01-10T12:16:59;4.90;;;1.70;;
84031;SDS011;74113;46.556;24.570;2024-01-10T12:19:28;4.10;;;2.90;;
84031;SDS011;74113;46.556;24.570;2024-01-10T12:21:57;5.50;;;1.80;;
84031;SDS011;74113;46.556;24.570;2024-01-10T12:24:27;3.50;;;1.90;;
84031;SDS011;74113;46.556;24.570;2024-01-10T12:26:57;3.60;;;1.60;;
84031;SDS011;74113;46.556;24.570;2024-01-10T12:29:27;4.20;;;1.10;;
84031;SDS011;74113;46.556;24.570;2024-01-10T12:31:55;3.80;;;1.30;;
84031;SDS011;74113;46.556;24.570;2024-01-10T12:34:24;4.00;;;1.40;;
84031;SDS011;74113;46.556;24.570;2024-01-10T12:36:55;3.80;;;1.10;;
84031;SDS011;74113;46.556;24.570;2024-01-10T12:39:24;3.60;;;1.40;;
84031;SDS011;74113;46.556;24.570;2024-01-10T12:41:54;2.70;;;1.20;;
84031;SDS011;74113;46.556;24.570;2024-01-10T12:44:22;6.90;;;2.80;;
84031;SDS011;74113;46.556;24.570;2024-01-10T12:46:56;6.00;;;2.00;;
84031;SDS011;74113;46.556;24.570;2024-01-10T12:49:25;4.80;;;2.30;;
84031;SDS011;74113;46.556;24.570;2024-01-10T12:51:54;6.10;;;2.10;;
84031;SDS011;74113;46.556;24.570;2024-01-10T12:54:23;5.70;;;2.20;;
84031;SDS011;74113;46.556;24.570;2024-01-10T12:56:52;3.50;;;1.10;;
84031;SDS011;74113;46.556;24.570;2024-01-10T12:59:21;3.00;;;1.20;;
84031;SDS011;74113;46.556;24.570;2024-01-10T13:01:50;6.70;;;2.10;;
84031;SDS011;74113;46.556;24.570;2024-01-10T13:04:24;4.10;;;1.80;;
84031;SDS011;74113;46.556;24.570;2024-01-10T13:06:53;5.70;;;2.20;;
84031;SDS011;74113;46.556;24.570;2024-01-10T13:11:49;6.40;;;3.50;;
84031;SDS011;74113;46.556;24.570;2024-01-10T13:14:18;6.00;;;3.10;;
84031;SDS011;74113;46.556;24.570;2024-01-10T13:16:47;5.20;;;1.70;;
84031;SDS011;74113;46.556;24.570;2024-01-10T13:19:26;3.50;;;1.80;;
84031;SDS011;74113;46.556;24.570;2024-01-10T13:21:56;6.10;;;2.00;;
84031;SDS011;74113;46.556;24.570;2024-01-10T13:26:53;4.70;;;3.40;;
84031;SDS011;74113;46.556;24.570;2024-01-10T13:29:22;2.50;;;0.80;;
84031;SDS011;74113;46.556;24.570;2024-01-10T13:31:51;3.80;;;1.00;;
84031;SDS011;74113;46.556;24.570;2024-01-10T13:36:49;3.30;;;1.90;;
84031;SDS011;74113;46.556;24.570;2024-01-10T13:39:17;4.40;;;3.20;;
84031;SDS011;74113;46.556;24.570;2024-01-10T13:41:47;3.20;;;1.10;;
84031;SDS011;74113;46.556;24.570;2024-01-10T13:44:16;3.30;;;1.20;;
84031;SDS011;74113;46.556;24.570;2024-01-10T13:46:45;3.10;;;1.10;;
84031;SDS011;74113;46.556;24.570;2024-01-10T13:49:14;2.20;;;0.90;;
84031;SDS011;74113;46.556;24.570;2024-01-10T13:51:42;4.70;;;2.60;;
84031;SDS011;74113;46.556;24.570;2024-01-10T13:54:13;3.90;;;1.40;;
84031;SDS011;74113;46.556;24.570;2024-01-10T13:56:41;3.60;;;1.30;;
84031;SDS011;74113;46.556;24.570;2024-01-10T13:59:10;2.90;;;1.00;;
84031;SDS011;74113;46.556;24.570;2024-01-10T14:01:40;4.70;;;1.80;;
84031;SDS011;74113;46.556;24.570;2024-01-10T14:04:08;4.50;;;0.90;;
84031;SDS011;74113;46.556;24.570;2024-01-10T14:06:39;8.30;;;2.80;;
84031;SDS011;74113;46.556;24.570;2024-01-10T14:11:38;5.90;;;1.60;;
84031;SDS011;74113;46.556;24.570;2024-01-10T14:16:35;5.70;;;2.10;;
84031;SDS011;74113;46.556;24.570;2024-01-10T14:19:04;8.90;;;4.40;;
84031;SDS011;74113;46.556;24.570;2024-01-10T14:21:33;6.10;;;2.80;;
84031;SDS011;74113;46.556;24.570;2024-01-10T14:24:02;10.00;;;3.70;;
84031;SDS011;74113;46.556;24.570;2024-01-10T14:26:31;10.60;;;3.90;;
84031;SDS011;74113;46.556;24.570;2024-01-10T14:31:28;13.40;;;3.80;;
84031;SDS011;74113;46.556;24.570;2024-01-10T14:34:17;6.00;;;2.00;;
84031;SDS011;74113;46.556;24.570;2024-01-10T14:36:48;9.80;;;4.30;;
84031;SDS011;74113;46.556;24.570;2024-01-10T14:39:16;13.10;;;5.10;;
84031;SDS011;74113;46.556;24.570;2024-01-10T14:41:47;12.40;;;5.20;;
84031;SDS011;74113;46.556;24.570;2024-01-10T14:46:43;22.80;;;6.30;;
84031;SDS011;74113;46.556;24.570;2024-01-10T14:49:23;24.10;;;8.60;;
84031;SDS011;74113;46.556;24.570;2024-01-10T14:51:52;19.40;;;7.50;;
84031;SDS011;74113;46.556;24.570;2024-01-10T14:54:21;13.10;;;6.50;;
84031;SDS011;74113;46.556;24.570;2024-01-10T14:59:19;13.50;;;6.40;;
84031;SDS011;74113;46.556;24.570;2024-01-10T15:02:04;12.60;;;6.90;;
84031;SDS011;74113;46.556;24.570;2024-01-10T15:04:38;24.60;;;8.90;;
84031;SDS011;74113;46.556;24.570;2024-01-10T15:07:08;20.60;;;8.60;;
84031;SDS011;74113;46.556;24.570;2024-01-10T15:09:37;21.00;;;8.50;;
84031;SDS011;74113;46.556;24.570;2024-01-10T15:12:06;19.90;;;7.40;;
84031;SDS011;74113;46.556;24.570;2024-01-10T15:14:36;14.30;;;9.00;;
84031;SDS011;74113;46.556;24.570;2024-01-10T15:17:08;12.30;;;5.00;;
84031;SDS011;74113;46.556;24.570;2024-01-10T15:19:39;8.20;;;4.30;;
84031;SDS011;74113;46.556;24.570;2024-01-10T15:22:08;8.40;;;5.20;;
84031;SDS011;74113;46.556;24.570;2024-01-10T15:24:37;9.30;;;5.10;;
84031;SDS011;74113;46.556;24.570;2024-01-10T15:27:07;6.80;;;3.30;;
84031;SDS011;74113;46.556;24.570;2024-01-10T15:29:38;9.50;;;3.50;;
84031;SDS011;74113;46.556;24.570;2024-01-10T15:32:07;6.20;;;5.00;;
84031;SDS011;74113;46.556;24.570;2024-01-10T15:34:37;6.00;;;2.70;;
84031;SDS011;74113;46.556;24.570;2024-01-10T15:37:06;13.50;;;6.50;;
84031;SDS011;74113;46.556;24.570;2024-01-10T15:39:35;12.40;;;5.90;;
84031;SDS011;74113;46.556;24.570;2024-01-10T15:42:06;8.30;;;2.90;;
84031;SDS011;74113;46.556;24.570;2024-01-10T15:44:38;4.80;;;2.60;;
84031;SDS011;74113;46.556;24.570;2024-01-10T15:47:08;5.90;;;2.60;;
84031;SDS011;74113;46.556;24.570;2024-01-10T15:49:38;6.50;;;3.00;;
84031;SDS011;74113;46.556;24.570;2024-01-10T15:52:08;7.00;;;3.00;;
84031;SDS011;74113;46.556;24.570;2024-01-10T15:57:06;8.50;;;3.20;;
84031;SDS011;74113;46.556;24.570;2024-01-10T16:02:03;6.70;;;2.70;;
84031;SDS011;74113;46.556;24.570;2024-01-10T16:04:32;9.30;;;3.30;;
84031;SDS011;74113;46.556;24.570;2024-01-10T16:07:01;8.20;;;2.20;;
84031;SDS011;74113;46.556;24.570;2024-01-10T16:09:29;6.00;;;2.80;;
84031;SDS011;74113;46.556;24.570;2024-01-10T16:11:58;6.40;;;3.00;;
84031;SDS011;74113;46.556;24.570;2024-01-10T16:14:26;7.80;;;3.20;;
84031;SDS011;74113;46.556;24.570;2024-01-10T16:16:55;7.20;;;4.70;;